Nigula, Estonia

9:20 AM EET on February 14, 2016 (GMT +0200)
Pusku, Tooraku | | Change Station
CLOSE
Current Station
Personal Weather Station
Location: Pusku, LääNE COUNTY
Elevation: 26 ft
Nearby Weather Stations

Elev 26 ft 58.88 °N, 23.46 °E | Updated 2 seconds ago

Overcast
Overcast
32.7 °F
Feels Like 33 °F
N
0.0
Wind Variable Wind from ESE
Gusts 0.0 mph

Today
High -- | Low -- °F
--% Chance of Precip.
Yesterday
High -- | Low -- °F
Precip. -- in
Pressure 29.53 in
Visibility 6.2 miles
Clouds Mostly Cloudy 900 ft
Overcast 1900 ft
Windchill 33 °F
Dew Point 31 °F
Humidity 93%
Rainfall 0.00 in
Snow Depth Not available.
8:03 AM 5:15 PM
Waxing Crescent, 39% visible
METAR EEEI 140650Z 12005KT 9999 BKN009 OVC019 01/M00 Q1000 R24/290095 NOSIG
Pressure 29.53 in
Visibility 6.2 miles
Clouds Mostly Cloudy 900 ft
Overcast 1900 ft
Windchill 33 °F
Dew Point 31 °F
Humidity 93%
Rainfall 0.00 in
Snow Depth Not available.
8:03 AM 5:15 PM
Waxing Crescent, 39% visible
METAR EEEI 140650Z 12005KT 9999 BKN009 OVC019 01/M00 Q1000 R24/290095 NOSIG

10-Day Weather Forecast

Almanac

Astronomy

Feb. 14, 2016 Rise Set
Actual Time
Civil Twilight
Nautical Twilight
Astronomical Twilight
Moon
Length of Visible Light
Length of Day
Tomorrow will be .
, % of the Moon is Illuminated

Today's Extremes

Country Highs Country Lows

Community

WunderPhotos

Upload Photos

1,892,757 photos uploaded!

WunderBlog® & News

Nearby

Air Quality

  Air Quality AQ Index Pollutant
Not available.

Snow Depth

Station Depth Elevation

Earthquake Activity

City Distance Mag. Time & Date
Minimum magnitude displayed is 2.5.

Coastal Water Temperatures

Place Temperature

Stations

Nearby Weather Stations

Station Location Temp. Windchill Dew Point Humidity Wind Precip. Elev Updated Type